Archival Weather

Tokyo Intl

Tokyo, Japan (RJTT)

Report from: Friday, September 22, 2023 8:30 PM JST
Current time: Sunday, February 25, 2024 1:19 AM JST

Current weather – Weather history – Daily summaries
Weather forecast

Present weatherRain showers, rain showers
Temperature24.0°C (75.2°F)
Dew point22.0°C (71.6°F)
Winds 15 kts (7.7 m/s, 17.3 mph) East-Northeast (60°)
Visibility3.7 mi. (6 km)
Clouds Few clouds 600 ft. (183 m)
Scattered clouds 2,500 ft. (762 m)
Ceiling: Broken clouds 4,000 ft. (1,219 m)
Altimeter29.91 in.Hg (1013 mB)
Relative humidity89 %
Density altitude1,409 ft. (429 m)
Flight conditions Marginal Visual Meteorological Conditions
Raw dataRJTT 221130Z 06015KT 6000 SHRA FEW006 SCT025 BKN040 24/22 Q1013 TEMPO 3000 SHRA BR
An error has occurred. This application may no longer respond until reloaded. Reload 🗙